Time;durP1;ratioP1;P1;durP2;ratioP2;P2;SDS_P1;SDS_P2;PMS_P1;PMS_P2;Temp;Humidity;BMP_temperature;BMP_pressure;BME280_temperature;BME280_humidity;BME280_pressure;Samples;Min_cycle;Max_cycle;Signal;HPM_P1;HPM_P2
2022/11/13 00:02:34;;;;;;;25.23;13.15;;;;;;;8.80;83.07;102270.56;5099930;28;20036;-67
2022/11/13 00:05:21;;;;;;;26.38;12.57;;;;;;;8.76;83.45;102275.22;5096803;28;20066;-65
2022/11/13 00:08:07;;;;;;;26.17;13.70;;;;;;;8.74;83.64;102263.91;5095408;28;20550;-66
2022/11/13 00:11:17;;;;;;;25.60;12.82;;;;;;;8.70;82.44;102262.44;5095853;28;20098;-66
2022/11/13 00:14:04;;;;;;;25.00;12.43;;;;;;;8.70;83.04;102254.50;5094228;28;20132;-66
2022/11/13 00:16:50;;;;;;;24.65;13.30;;;;;;;8.74;83.51;102261.25;5095035;28;20042;-66
2022/11/13 00:19:37;;;;;;;25.40;13.18;;;;;;;8.69;82.41;102260.72;5093754;28;20036;-67
2022/11/13 00:22:24;;;;;;;25.60;12.93;;;;;;;8.64;81.71;102255.75;5094744;28;20040;-66
2022/11/13 00:25:11;;;;;;;24.35;13.23;;;;;;;8.66;82.83;102263.59;5094869;28;20123;-66
2022/11/13 00:27:58;;;;;;;25.42;13.55;;;;;;;8.62;82.75;102256.81;5094740;28;20040;-66
2022/11/13 00:30:45;;;;;;;23.38;12.60;;;;;;;8.49;82.93;102251.50;5093756;28;20119;-66
2022/11/13 00:33:32;;;;;;;25.17;13.27;;;;;;;8.57;83.43;102251.00;5094435;28;20052;-67
2022/11/13 00:36:39;;;;;;;26.08;13.30;;;;;;;8.54;83.07;102241.47;5082784;28;20039;-66
2022/11/13 00:39:26;;;;;;;28.75;13.90;;;;;;;8.50;82.54;102237.34;5093270;28;20044;-67
2022/11/13 00:42:13;;;;;;;24.80;13.77;;;;;;;8.45;83.08;102235.00;5094619;28;20040;-67
2022/11/13 00:44:59;;;;;;;25.17;12.77;;;;;;;8.43;83.09;102234.25;5094224;28;20032;-67
2022/11/13 00:47:46;;;;;;;26.90;13.23;;;;;;;8.50;82.71;102232.03;5093964;28;20044;-67
2022/11/13 00:50:33;;;;;;;25.13;13.32;;;;;;;8.54;82.56;102230.88;5075946;28;20056;-66
2022/11/13 00:53:19;;;;;;;29.50;14.05;;;;;;;8.54;82.84;102230.03;5093451;28;20050;-66
2022/11/13 00:56:06;;;;;;;24.38;13.13;;;;;;;8.50;82.55;102233.84;5093132;28;20044;-66
2022/11/13 00:58:53;;;;;;;23.63;12.57;;;;;;;8.52;82.43;102230.13;5094121;28;20067;-66
2022/11/13 01:01:39;;;;;;;23.00;12.88;;;;;;;8.55;82.24;102227.28;5078712;28;20487;-66
2022/11/13 01:04:28;;;;;;;24.48;12.48;;;;;;;8.54;82.17;102225.59;5092974;28;20071;-67
2022/11/13 01:07:14;;;;;;;22.95;12.40;;;;;;;8.51;82.42;102223.16;5089631;28;20036;-67
2022/11/13 01:10:04;;;;;;;22.52;12.30;;;;;;;8.56;82.00;102222.84;5093827;28;20052;-67
2022/11/13 01:12:50;;;;;;;21.80;12.05;;;;;;;8.55;81.81;102223.78;5093652;28;20040;-66
2022/11/13 01:15:39;;;;;;;22.08;12.43;;;;;;;8.57;81.44;102225.38;5093963;28;20036;-66
2022/11/13 01:18:25;;;;;;;22.35;11.82;;;;;;;8.62;81.56;102217.13;5093600;28;20060;-66
2022/11/13 01:21:16;;;;;;;21.77;11.77;;;;;;;8.56;81.23;102222.84;5093776;28;20040;-66
2022/11/13 01:24:04;;;;;;;22.47;12.03;;;;;;;8.63;81.11;102219.66;5093581;28;20046;-66
2022/11/13 01:26:50;;;;;;;23.35;11.88;;;;;;;8.66;80.92;102223.91;5092807;28;20044;-66
2022/11/13 01:29:38;;;;;;;23.92;12.48;;;;;;;8.60;81.17;102211.97;5092747;28;20055;-67
2022/11/13 01:32:24;;;;;;;24.48;11.68;;;;;;;8.62;80.69;102210.06;5093607;28;20110;-67
2022/11/13 01:35:11;;;;;;;23.15;11.75;;;;;;;8.68;80.19;102206.13;5078634;28;20401;-67
2022/11/13 01:37:57;;;;;;;20.35;11.38;;;;;;;8.60;80.09;102196.09;5093275;28;20044;-66
2022/11/13 01:40:46;;;;;;;23.10;12.02;;;;;;;8.63;79.97;102192.38;5092560;28;20052;-67
2022/11/13 01:43:36;;;;;;;21.58;11.27;;;;;;;8.64;80.31;102191.41;5092428;28;20037;-66
2022/11/13 01:46:33;;;;;;;21.23;11.25;;;;;;;8.61;79.85;102191.63;5092516;28;20054;-67
2022/11/13 01:49:27;;;;;;;23.42;12.30;;;;;;;8.54;80.28;102187.72;5055119;28;20037;-68
2022/11/13 01:52:26;;;;;;;22.73;11.63;;;;;;;8.56;80.08;102181.34;5093269;28;20124;-67
2022/11/13 01:55:17;;;;;;;22.33;11.68;;;;;;;8.50;80.09;102176.50;5092202;28;20047;-67
2022/11/13 01:58:07;;;;;;;23.02;11.75;;;;;;;8.53;79.98;102175.44;5092952;28;20036;-67
2022/11/13 02:00:53;;;;;;;27.27;11.73;;;;;;;8.55;80.35;102177.03;5078358;28;20047;-67
2022/11/13 02:03:40;;;;;;;26.00;12.20;;;;;;;8.51;79.87;102172.06;5093177;28;20046;-67
2022/11/13 02:06:32;;;;;;;25.75;12.02;;;;;;;8.52;80.76;102165.81;5091539;28;20040;-66
2022/11/13 02:09:22;;;;;;;24.02;11.90;;;;;;;8.51;80.66;102159.66;5077753;28;20524;-66
2022/11/13 02:12:12;;;;;;;22.63;12.00;;;;;;;8.56;80.20;102169.94;5092954;28;20120;-67
2022/11/13 02:15:01;;;;;;;23.58;11.88;;;;;;;8.48;80.01;102167.84;5093350;28;20047;-67
2022/11/13 02:17:53;;;;;;;20.63;11.13;;;;;;;8.49;79.85;102172.16;5092896;28;20158;-67
2022/11/13 02:20:55;;;;;;;26.13;11.60;;;;;;;8.59;79.63;102161.81;5093235;28;20496;-67
2022/11/13 02:23:53;;;;;;;22.98;12.07;;;;;;;8.64;79.96;102167.59;5092819;28;20040;-67
2022/11/13 02:26:41;;;;;;;23.02;11.93;;;;;;;8.55;79.30;102160.31;5092948;28;20123;-67
2022/11/13 02:29:27;;;;;;;27.83;11.85;;;;;;;8.57;79.02;102161.06;5092205;28;20123;-68
2022/11/13 02:32:15;;;;;;;23.17;11.82;;;;;;;8.52;79.44;102169.31;5091882;28;20138;-68
2022/11/13 02:35:01;;;;;;;23.38;11.52;;;;;;;8.49;79.33;102163.38;5091865;28;20090;-68
2022/11/13 02:37:48;;;;;;;22.00;11.45;;;;;;;8.56;79.25;102164.66;5092561;28;20119;-68
2022/11/13 02:40:35;;;;;;;21.95;11.93;;;;;;;8.56;79.58;102164.66;5092806;28;20068;-68
2022/11/13 02:43:21;;;;;;;24.30;11.93;;;;;;;8.55;79.46;102160.31;5091651;28;20115;-67
2022/11/13 02:46:08;;;;;;;20.83;10.98;;;;;;;8.53;79.69;102160.44;5092754;28;20111;-68
2022/11/13 02:48:54;;;;;;;20.58;11.23;;;;;;;8.50;80.48;102151.88;5057171;28;20607;-68
2022/11/13 02:51:41;;;;;;;20.77;11.23;;;;;;;8.50;80.33;102147.41;5092713;28;20115;-68
2022/11/13 02:54:28;;;;;;;21.92;11.43;;;;;;;8.38;80.52;102154.34;5092455;28;20448;-68
2022/11/13 02:57:14;;;;;;;23.70;11.18;;;;;;;8.36;80.26;102143.03;5091687;28;20443;-68
2022/11/13 03:00:02;;;;;;;20.63;11.50;;;;;;;8.36;80.51;102150.97;5091319;28;20047;-68
2022/11/13 03:02:49;;;;;;;24.95;12.45;;;;;;;8.29;80.62;102139.09;5092609;28;20427;-68
2022/11/13 03:05:36;;;;;;;21.48;11.98;;;;;;;8.27;80.56;102147.13;5091827;28;20042;-68
2022/11/13 03:08:24;;;;;;;20.38;11.38;;;;;;;8.23;80.75;102147.47;5087379;28;20043;-68
2022/11/13 03:11:11;;;;;;;21.58;11.45;;;;;;;8.15;81.11;102133.91;5072351;28;20045;-68
2022/11/13 03:13:58;;;;;;;22.50;11.73;;;;;;;8.20;80.92;102137.09;5070543;28;20111;-68
2022/11/13 03:16:44;;;;;;;21.13;11.48;;;;;;;8.28;80.98;102134.78;5071636;28;20044;-68
2022/11/13 03:19:31;;;;;;;23.48;11.70;;;;;;;8.18;80.69;102129.25;5075682;28;20041;-68
2022/11/13 03:22:18;;;;;;;21.65;11.57;;;;;;;8.18;81.04;102133.72;5076062;28;20079;-68
2022/11/13 03:25:05;;;;;;;19.67;11.30;;;;;;;8.04;81.25;102124.06;5060826;28;20043;-68
2022/11/13 03:27:55;;;;;;;23.23;12.50;;;;;;;8.15;81.24;102125.97;5075892;28;20555;-68
2022/11/13 03:30:42;;;;;;;22.13;11.90;;;;;;;8.03;81.85;102123.22;5074531;28;20068;-68
2022/11/13 03:33:30;;;;;;;22.83;12.65;;;;;;;7.98;81.69;102125.34;5078282;28;20043;-68
2022/11/13 03:36:16;;;;;;;25.38;13.25;;;;;;;7.94;82.54;102125.66;5080532;28;20051;-68
2022/11/13 03:39:03;;;;;;;23.83;11.98;;;;;;;7.93;82.01;102124.81;5094529;28;20378;-68
2022/11/13 03:41:49;;;;;;;26.83;12.80;;;;;;;7.95;82.67;102129.97;5094312;28;20062;-68
2022/11/13 03:44:37;;;;;;;24.92;13.20;;;;;;;7.77;82.58;102121.50;5094839;28;20032;-68
2022/11/13 03:47:23;;;;;;;23.05;12.25;;;;;;;7.78;82.86;102128.47;5095357;28;20111;-68
2022/11/13 03:50:10;;;;;;;25.42;12.88;;;;;;;7.71;82.78;102120.09;5094635;28;20059;-68
2022/11/13 03:52:56;;;;;;;26.30;12.57;;;;;;;7.71;83.23;102120.09;5094935;28;20036;-68
2022/11/13 03:55:43;;;;;;;24.70;13.07;;;;;;;7.70;82.59;102110.50;5095607;28;20046;-68
2022/11/13 03:58:30;;;;;;;25.13;13.40;;;;;;;7.64;82.78;102118.81;5094005;28;20054;-68
2022/11/13 04:01:17;;;;;;;22.15;12.00;;;;;;;7.59;83.75;102111.19;5095526;28;20044;-68
2022/11/13 04:04:04;;;;;;;22.77;12.77;;;;;;;7.57;83.15;102110.47;5095094;28;20139;-68
2022/11/13 04:06:50;;;;;;;24.20;12.65;;;;;;;7.47;83.86;102104.91;5094959;28;20118;-68
2022/11/13 04:09:37;;;;;;;22.67;12.70;;;;;;;7.57;83.05;102105.19;5094733;28;20080;-68
2022/11/13 04:12:23;;;;;;;22.90;12.35;;;;;;;7.57;83.32;102107.81;5080161;28;20048;-68
2022/11/13 04:15:10;;;;;;;21.85;12.15;;;;;;;7.52;83.68;102096.69;5066166;28;20491;-68
2022/11/13 04:17:57;;;;;;;24.48;12.88;;;;;;;7.53;82.63;102095.78;5095078;28;20052;-68
2022/11/13 04:20:43;;;;;;;24.58;12.32;;;;;;;7.52;83.08;102101.16;5095076;28;20036;-68
2022/11/13 04:23:31;;;;;;;24.85;12.15;;;;;;;7.45;83.36;102096.25;5094719;28;20032;-68
2022/11/13 04:26:18;;;;;;;23.17;12.00;;;;;;;7.37;82.98;102088.00;5095066;28;20550;-68
2022/11/13 04:29:05;;;;;;;23.67;11.68;;;;;;;7.32;83.56;102090.09;5094693;28;20533;-68
2022/11/13 04:31:52;;;;;;;21.17;11.80;;;;;;;7.37;83.24;102079.22;5095194;28;20505;-68
2022/11/13 04:34:40;;;;;;;22.45;12.20;;;;;;;7.23;83.34;102075.69;5094617;28;20044;-68
2022/11/13 04:37:26;;;;;;;23.27;12.10;;;;;;;7.29;83.74;102077.09;5094810;28;20067;-68
2022/11/13 04:40:13;;;;;;;21.45;11.05;;;;;;;7.31;83.80;102075.19;5094640;28;20036;-68
2022/11/13 04:42:59;;;;;;;23.08;11.70;;;;;;;7.31;83.42;102075.19;5094652;28;20470;-68
2022/11/13 04:45:46;;;;;;;22.42;10.95;;;;;;;7.32;82.82;102074.25;5094360;28;20088;-68
2022/11/13 04:48:33;;;;;;;20.27;10.68;;;;;;;7.33;82.84;102072.44;5056852;28;20044;-68
2022/11/13 04:51:19;;;;;;;18.98;10.10;;;;;;;7.33;83.32;102075.09;5094317;28;20040;-68
2022/11/13 04:54:06;;;;;;;23.85;11.25;;;;;;;7.24;82.80;102071.25;5093034;28;20047;-68
2022/11/13 04:56:52;;;;;;;23.48;10.70;;;;;;;7.16;83.15;102079.66;5094113;28;20036;-68
2022/11/13 04:59:39;;;;;;;19.33;10.63;;;;;;;7.13;83.45;102079.91;5094048;28;20048;-68
2022/11/13 05:02:26;;;;;;;20.20;11.13;;;;;;;7.15;83.55;102075.34;5079051;28;20052;-68
2022/11/13 05:05:12;;;;;;;21.88;10.95;;;;;;;7.17;83.49;102075.22;5093468;28;20370;-68
2022/11/13 05:07:59;;;;;;;21.23;10.60;;;;;;;7.06;83.28;102068.03;5092689;28;20059;-68
2022/11/13 05:10:45;;;;;;;20.52;10.70;;;;;;;7.11;82.99;102073.84;5086767;28;20105;-68
2022/11/13 05:13:34;;;;;;;20.15;10.52;;;;;;;6.93;83.92;102065.34;5093826;28;20046;-68
2022/11/13 05:16:21;;;;;;;19.17;10.27;;;;;;;7.05;83.28;102067.16;5093982;28;20058;-68
2022/11/13 05:19:07;;;;;;;20.25;10.68;;;;;;;7.10;83.46;102069.53;5093533;28;20394;-68
2022/11/13 05:21:54;;;;;;;20.33;10.90;;;;;;;7.09;83.40;102067.81;5092927;28;20493;-68
2022/11/13 05:24:41;;;;;;;19.38;10.35;;;;;;;7.04;83.72;102062.84;5092410;28;20040;-68
2022/11/13 05:27:27;;;;;;;22.63;10.75;;;;;;;7.10;83.53;102046.59;5093760;28;20050;-68
2022/11/13 05:30:14;;;;;;;20.23;10.48;;;;;;;6.95;83.35;102058.16;5092436;28;20038;-68
2022/11/13 05:33:01;;;;;;;22.67;10.80;;;;;;;6.95;83.02;102054.66;5093735;28;20040;-68
2022/11/13 05:35:48;;;;;;;19.67;10.30;;;;;;;7.08;82.84;102045.88;5073135;28;20058;-68
2022/11/13 05:38:35;;;;;;;20.02;10.77;;;;;;;7.06;83.45;102044.28;5073237;28;20042;-68
2022/11/13 05:41:23;;;;;;;23.10;10.27;;;;;;;6.99;83.39;102043.00;5072683;28;20036;-68
2022/11/13 05:44:09;;;;;;;24.60;10.60;;;;;;;6.93;83.19;102038.97;5073471;28;20398;-68
2022/11/13 05:46:56;;;;;;;22.40;10.77;;;;;;;6.98;82.77;102041.28;5072977;28;20040;-68
2022/11/13 05:49:42;;;;;;;19.38;10.10;;;;;;;6.84;83.06;102035.09;5073333;28;20040;-68
2022/11/13 05:52:29;;;;;;;20.00;10.38;;;;;;;6.81;83.01;102037.09;5072698;28;20082;-68
2022/11/13 05:55:15;;;;;;;21.63;10.13;;;;;;;6.76;83.36;102036.53;5073110;28;20048;-68
2022/11/13 05:58:02;;;;;;;20.60;10.63;;;;;;;6.82;82.64;102026.44;5085450;28;20454;-68
2022/11/13 06:00:49;;;;;;;21.05;10.82;;;;;;;6.85;82.91;102034.16;5073451;28;20128;-68
2022/11/13 06:03:36;;;;;;;17.98;9.80;;;;;;;6.83;82.30;102027.28;5076237;28;20036;-68
2022/11/13 06:06:24;;;;;;;19.98;10.25;;;;;;;6.91;82.54;102017.94;5091582;28;20141;-68
2022/11/13 06:09:15;;;;;;;18.52;10.15;;;;;;;6.86;82.55;102008.63;5092608;28;20485;-68
2022/11/13 06:12:01;;;;;;;24.15;10.48;;;;;;;6.87;82.42;102007.69;5092057;28;20115;-68
2022/11/13 06:14:48;;;;;;;19.92;10.32;;;;;;;6.87;82.46;102002.41;5092013;28;20032;-69
2022/11/13 06:17:34;;;;;;;24.02;10.50;;;;;;;6.81;82.87;102003.66;5092077;28;20458;-67
2022/11/13 06:20:21;;;;;;;21.52;10.68;;;;;;;6.81;82.68;101997.53;5093229;28;20656;-68
2022/11/13 06:23:08;;;;;;;20.13;10.10;;;;;;;6.70;82.69;101998.22;5092806;28;20119;-67
2022/11/13 06:26:05;;;;;;;17.80;9.65;;;;;;;6.72;82.42;101991.88;5078286;28;20471;-67
2022/11/13 06:28:51;;;;;;;18.52;9.40;;;;;;;6.64;82.04;101986.28;5092742;28;20048;-68
2022/11/13 06:31:38;;;;;;;18.92;9.70;;;;;;;6.66;82.13;101983.53;5092208;28;20119;-68
2022/11/13 06:34:25;;;;;;;17.52;9.13;;;;;;;6.66;81.55;101976.47;5092516;28;20040;-67
2022/11/13 06:37:12;;;;;;;20.08;9.65;;;;;;;6.68;81.38;101981.66;5092065;28;20366;-67
2022/11/13 06:39:59;;;;;;;17.85;9.57;;;;;;;6.69;82.43;101981.56;5092366;28;20044;-67
2022/11/13 06:42:46;;;;;;;23.35;9.52;;;;;;;6.60;82.64;101981.28;5093142;28;20367;-67
2022/11/13 06:45:32;;;;;;;18.33;9.57;;;;;;;6.65;82.75;101972.13;5092523;28;20044;-67
2022/11/13 06:48:19;;;;;;;18.60;9.18;;;;;;;6.62;82.26;101982.03;5092694;28;20059;-67
2022/11/13 06:51:11;;;;;;;18.27;9.38;;;;;;;6.63;82.60;101979.28;5092645;28;20067;-67
2022/11/13 06:53:58;;;;;;;;;;;;;;;6.57;82.44;101989.38;5096713;28;20028;-68
2022/11/13 06:56:45;;;;;;;18.10;9.07;;;;;;;6.49;82.12;101982.81;5081314;28;19920;-67
2022/11/13 06:59:31;;;;;;;17.48;9.35;;;;;;;6.57;82.06;101976.19;5096264;28;20119;-67
2022/11/13 07:02:18;;;;;;;16.33;8.77;;;;;;;6.63;82.06;101984.56;5096449;28;20042;-67
2022/11/13 07:05:05;;;;;;;20.20;9.35;;;;;;;6.62;82.14;101987.28;5095965;28;20081;-68
2022/11/13 07:07:51;;;;;;;19.35;9.60;;;;;;;6.44;81.73;101986.66;5088473;28;20032;-68
2022/11/13 07:10:39;;;;;;;17.55;9.27;;;;;;;6.54;82.49;101986.00;5088075;28;20075;-68
2022/11/13 07:13:26;;;;;;;21.52;10.00;;;;;;;6.63;81.19;101975.81;5095926;28;20039;-68
2022/11/13 07:16:14;;;;;;;19.13;8.88;;;;;;;6.62;81.81;101974.97;5096100;28;20115;-68
2022/11/13 07:19:03;;;;;;;19.05;9.38;;;;;;;6.67;81.66;101974.66;5095984;28;20036;-68
2022/11/13 07:21:50;;;;;;;17.23;9.18;;;;;;;6.69;81.67;101976.28;5095403;28;20570;-68
2022/11/13 07:24:36;;;;;;;16.67;8.70;;;;;;;6.69;81.34;101973.66;5095901;28;20043;-68
2022/11/13 07:27:24;;;;;;;18.13;8.80;;;;;;;6.79;80.87;101976.53;5095210;28;20130;-68
2022/11/13 07:30:11;;;;;;;15.60;8.40;;;;;;;6.82;80.82;101976.34;5095746;28;20090;-68
2022/11/13 07:33:03;;;;;;;18.65;9.05;;;;;;;6.85;80.93;101973.47;5095819;28;20111;-68
2022/11/13 07:35:52;;;;;;;20.60;10.10;;;;;;;6.89;80.73;101966.22;5075444;28;20555;-68
2022/11/13 07:38:39;;;;;;;18.60;9.38;;;;;;;6.77;80.38;101962.59;5074526;28;20068;-68
2022/11/13 07:41:26;;;;;;;19.00;9.07;;;;;;;6.95;80.43;101968.47;5075336;28;20043;-68
2022/11/13 07:44:13;;;;;;;15.13;8.43;;;;;;;6.91;79.89;101964.31;5074636;28;20048;-68
2022/11/13 07:47:03;;;;;;;19.25;8.90;;;;;;;7.04;79.39;101974.91;5074124;28;20040;-68
2022/11/13 07:49:51;;;;;;;16.58;8.25;;;;;;;7.10;80.01;101959.53;5088455;28;20044;-69
2022/11/13 07:52:37;;;;;;;17.23;8.95;;;;;;;7.23;79.15;101959.56;5087833;28;20041;-66
2022/11/13 07:55:24;;;;;;;16.30;8.98;;;;;;;7.23;79.67;101959.56;5074109;28;20047;-66
2022/11/13 07:58:11;;;;;;;16.88;9.52;;;;;;;7.22;79.82;101955.25;5074723;28;20045;-68
2022/11/13 08:01:02;;;;;;;17.90;9.63;;;;;;;7.35;79.67;101959.69;5074324;28;20056;-67
2022/11/13 08:03:49;;;;;;;19.08;9.82;;;;;;;7.28;79.79;101954.81;5079896;28;20065;-66
2022/11/13 08:06:36;;;;;;;18.85;9.73;;;;;;;7.42;79.41;101951.25;5079761;28;20128;-66
2022/11/13 08:09:23;;;;;;;21.50;9.88;;;;;;;7.46;78.41;101949.25;5094681;28;20135;-67
2022/11/13 08:12:09;;;;;;;18.33;9.27;;;;;;;7.61;78.63;101947.38;5095064;28;20043;-67
2022/11/13 08:14:56;;;;;;;16.92;9.18;;;;;;;7.65;78.35;101951.47;5094841;28;20392;-68
2022/11/13 08:17:42;;;;;;;18.23;9.50;;;;;;;7.63;78.43;101954.22;5095092;28;20497;-67
2022/11/13 08:20:30;;;;;;;21.77;9.30;;;;;;;7.69;78.38;101950.31;5094896;28;20074;-67
2022/11/13 08:23:17;;;;;;;17.40;9.50;;;;;;;7.73;77.97;101945.66;5094746;28;20044;-67
2022/11/13 08:26:05;;;;;;;20.02;8.85;;;;;;;7.74;78.43;101942.91;5095013;28;20119;-67
2022/11/13 08:28:51;;;;;;;15.57;8.82;;;;;;;7.81;78.43;101949.47;5094721;28;20114;-67
2022/11/13 08:31:38;;;;;;;18.52;9.63;;;;;;;7.67;77.60;101950.41;5094815;28;20040;-67
2022/11/13 08:34:24;;;;;;;17.25;8.82;;;;;;;7.82;77.84;101950.31;5094373;28;20067;-67
2022/11/13 08:37:11;;;;;;;15.93;8.88;;;;;;;7.90;77.41;101942.69;5093742;28;20052;-67
2022/11/13 08:39:58;;;;;;;19.90;10.38;;;;;;;7.91;77.96;101939.09;5094382;28;20048;-67
2022/11/13 08:42:45;;;;;;;18.95;9.70;;;;;;;8.04;76.32;101939.06;5094536;28;20066;-67
2022/11/13 08:45:31;;;;;;;19.20;9.80;;;;;;;8.05;76.43;101927.56;5093098;28;20506;-67
2022/11/13 08:48:18;;;;;;;17.63;8.73;;;;;;;8.10;75.47;101933.38;5094105;28;20159;-67
2022/11/13 08:51:05;;;;;;;18.13;9.40;;;;;;;8.19;76.43;101931.88;5093829;28;20127;-67
2022/11/13 08:53:51;;;;;;;21.17;9.50;;;;;;;8.29;76.48;101927.59;5092870;28;20048;-67
2022/11/13 08:56:38;;;;;;;18.55;9.18;;;;;;;8.31;75.74;101916.91;5093932;28;20493;-68
2022/11/13 08:59:26;;;;;;;17.50;9.68;;;;;;;8.36;74.56;101909.50;5078354;28;20385;-67
2022/11/13 09:02:14;;;;;;;17.08;9.30;;;;;;;8.41;75.13;101902.94;5093502;28;20529;-67
2022/11/13 09:05:00;;;;;;;19.13;9.60;;;;;;;8.45;75.23;101895.66;5093146;28;20519;-68
2022/11/13 09:07:47;;;;;;;20.50;9.15;;;;;;;8.49;75.62;101890.97;5093027;28;20073;-67
2022/11/13 09:10:34;;;;;;;19.13;9.20;;;;;;;8.60;74.51;101897.19;5090830;28;20135;-67
2022/11/13 09:13:20;;;;;;;17.75;8.68;;;;;;;8.48;74.91;101891.91;5073173;28;20047;-68
2022/11/13 09:16:07;;;;;;;18.75;9.43;;;;;;;8.52;73.82;101890.75;5072260;28;20060;-67
2022/11/13 09:18:54;;;;;;;16.73;8.70;;;;;;;8.64;73.17;101889.84;5071895;28;20045;-67
2022/11/13 09:21:40;;;;;;;16.80;8.32;;;;;;;8.74;71.55;101885.56;5073199;28;20052;-67
2022/11/13 09:24:27;;;;;;;17.55;8.55;;;;;;;8.84;72.37;101889.22;5072069;28;20124;-67
2022/11/13 09:27:14;;;;;;;16.33;8.48;;;;;;;9.00;70.06;101882.75;5071976;28;20037;-68
2022/11/13 09:30:00;;;;;;;17.33;7.93;;;;;;;9.06;68.52;101892.03;5073337;28;20581;-69
2022/11/13 09:32:47;;;;;;;15.18;8.02;;;;;;;9.12;68.12;101886.31;5073259;28;20068;-67
2022/11/13 09:35:34;;;;;;;15.10;7.93;;;;;;;9.25;67.58;101875.63;5092735;28;20040;-69
2022/11/13 09:38:21;;;;;;;16.83;7.60;;;;;;;9.32;68.78;101879.47;5092990;28;20488;-68
2022/11/13 09:41:11;;;;;;;14.05;7.07;;;;;;;9.26;68.22;101870.22;5077746;28;20044;-68
2022/11/13 09:44:02;;;;;;;15.45;7.80;;;;;;;9.33;67.91;101876.72;5075954;28;20036;-68
2022/11/13 09:46:55;;;;;;;27.13;11.73;;;;;;;9.42;66.57;101880.44;5089874;28;20070;-59
2022/11/13 09:49:46;;;;;;;60.78;28.23;;;;;;;9.54;65.17;101879.50;5089131;28;20459;-70
2022/11/13 09:52:36;;;;;;;13.93;6.72;;;;;;;9.71;64.02;101877.34;5080807;28;20556;-68
2022/11/13 09:55:30;;;;;;;14.35;6.03;;;;;;;9.73;63.67;101868.31;5092780;28;20485;-65
2022/11/13 09:58:44;;;;;;;14.60;6.22;;;;;;;9.86;64.49;101865.53;5035734;28;20051;-66
2022/11/13 10:01:46;;;;;;;13.23;6.07;;;;;;;10.05;63.89;101866.72;5072671;28;20480;-66
2022/11/13 10:04:49;;;;;;;11.32;5.88;;;;;;;10.09;64.89;101860.19;5083230;28;20040;-66
2022/11/13 10:07:48;;;;;;;11.38;5.72;;;;;;;10.16;64.34;101867.53;5091752;28;20489;-67
2022/11/13 10:11:05;;;;;;;14.57;5.97;;;;;;;10.29;63.32;101854.09;5091813;28;20048;-66
2022/11/13 10:13:56;;;;;;;12.52;5.63;;;;;;;10.43;61.81;101855.66;5091313;28;20058;-66
2022/11/13 10:17:06;;;;;;;11.27;5.38;;;;;;;10.64;61.02;101854.84;5092341;28;20044;-66
2022/11/13 10:20:07;;;;;;;11.40;5.07;;;;;;;10.80;59.45;101852.63;5092295;28;20093;-66
2022/11/13 10:22:58;;;;;;;10.38;4.50;;;;;;;11.00;58.33;101858.06;5078268;28;20520;-66
2022/11/13 10:25:45;;;;;;;9.85;4.50;;;;;;;11.18;56.04;101848.53;5092556;28;20490;-66
2022/11/13 10:28:32;;;;;;;9.65;4.28;;;;;;;11.27;55.72;101849.56;5096517;28;20427;-67
2022/11/13 10:31:45;;;;;;;8.60;3.85;;;;;;;11.48;55.27;101846.88;5096366;28;20036;-67
2022/11/13 10:34:32;;;;;;;9.55;4.03;;;;;;;11.70;54.30;101844.03;5096329;28;20512;-66
2022/11/13 10:37:43;;;;;;;9.50;3.78;;;;;;;11.96;52.13;101834.75;5095467;28;20044;-66
2022/11/13 10:40:33;;;;;;;10.00;3.60;;;;;;;12.36;50.42;101837.34;5095406;28;20071;-67
2022/11/13 10:43:24;;;;;;;9.10;3.92;;;;;;;13.59;47.14;101835.75;5096414;28;20777;-67
2022/11/13 10:46:19;;;;;;;10.40;4.03;;;;;;;16.93;41.00;101833.59;5096576;28;20040;-67
2022/11/13 10:49:27;;;;;;;10.05;4.55;;;;;;;20.71;34.20;101831.09;5096126;28;20115;-66
2022/11/13 10:52:21;;;;;;;13.65;4.32;;;;;;;22.66;30.27;101832.78;5095464;28;20042;-66
2022/11/13 10:55:19;;;;;;;10.43;4.22;;;;;;;24.32;28.19;101832.28;5095057;28;20047;-66
2022/11/13 10:58:16;;;;;;;9.40;4.43;;;;;;;25.47;26.73;101825.59;5095381;28;20040;-68
2022/11/13 11:01:23;;;;;;;8.88;4.43;;;;;;;25.99;25.32;101827.03;5095680;28;20401;-67
2022/11/13 11:04:13;;;;;;;8.75;4.20;;;;;;;26.91;24.42;101826.63;5095859;28;20093;-65
2022/11/13 11:07:12;;;;;;;10.10;4.43;;;;;;;26.83;23.79;101820.72;5094168;28;20422;-67
2022/11/13 11:10:20;;;;;;;9.70;3.97;;;;;;;27.48;23.10;101827.88;5095755;28;20493;-66
2022/11/13 11:13:11;;;;;;;10.65;3.92;;;;;;;26.96;22.03;101826.75;5076497;28;20124;-67
2022/11/13 11:16:02;;;;;;;8.43;4.07;;;;;;;27.97;21.87;101819.31;5075759;28;20048;-67
2022/11/13 11:18:57;;;;;;;11.85;4.60;;;;;;;28.40;21.23;101815.97;5075538;28;20040;-67
2022/11/13 11:21:47;;;;;;;9.60;4.18;;;;;;;28.06;20.92;101813.22;5075816;28;20040;-67
2022/11/13 11:24:39;;;;;;;9.43;4.05;;;;;;;27.63;20.90;101811.00;5075451;28;20037;-66
2022/11/13 11:27:35;;;;;;;10.38;4.45;;;;;;;28.38;20.83;101804.47;5075711;28;20050;-66
2022/11/13 11:30:25;;;;;;;8.57;4.13;;;;;;;28.51;20.52;101800.59;5075772;28;20128;-66
2022/11/13 11:33:36;;;;;;;8.35;4.05;;;;;;;28.41;20.84;101798.50;5074872;28;20135;-66
2022/11/13 11:36:32;;;;;;;8.10;3.90;;;;;;;28.11;20.39;101794.22;5082759;28;20105;-66
2022/11/13 11:42:07;;;;;;;10.18;3.97;;;;;;;28.32;21.22;101783.63;5110376;27;20136;-65
2022/11/13 11:47:34;;;;;;;9.25;3.70;;;;;;;27.48;21.95;101782.38;5110578;27;20362;-66
2022/11/13 11:50:37;;;;;;;8.93;3.80;;;;;;;25.65;22.57;101775.03;5109812;28;20378;-65
2022/11/13 11:54:03;;;;;;;8.55;3.65;;;;;;;23.88;25.23;101770.84;5095944;28;20131;-65
2022/11/13 11:56:54;;;;;;;8.20;3.65;;;;;;;22.65;28.26;101758.94;5071943;28;20047;-66
2022/11/13 12:02:57;;;;;;;7.93;3.30;;;;;;;20.49;31.32;101744.00;5152216;27;20364;-67
2022/11/13 12:08:54;;;;;;;10.23;3.55;;;;;;;18.77;34.02;101731.06;5151814;27;20394;-65
2022/11/13 12:11:54;;;;;;;8.23;3.80;;;;;;;18.58;34.75;101723.53;5131280;28;20092;-66
2022/11/13 12:14:58;;;;;;;11.25;3.72;;;;;;;18.28;33.93;101718.09;5118650;28;20036;-66
2022/11/13 12:18:12;;;;;;;8.18;3.60;;;;;;;18.49;34.96;101708.50;5118308;28;20036;-66
2022/11/13 12:21:22;;;;;;;9.70;3.33;;;;;;;19.14;32.52;101710.50;5099492;28;20077;-66
2022/11/13 12:24:49;;;;;;;9.77;4.03;;;;;;;19.96;31.31;101705.84;5110566;28;20062;-66
2022/11/13 12:30:18;;;;;;;9.38;3.60;;;;;;;21.21;30.08;101693.44;5110923;27;20737;-68
2022/11/13 12:33:28;;;;;;;9.10;3.50;;;;;;;20.73;30.53;101690.69;5110680;28;20107;-66
2022/11/13 12:36:15;;;;;;;8.95;3.30;;;;;;;20.68;30.74;101685.91;5090583;28;20557;-66
2022/11/13 12:39:42;;;;;;;8.73;3.85;;;;;;;21.00;30.91;101682.75;5075035;28;20048;-66
2022/11/13 12:42:34;;;;;;;9.57;3.78;;;;;;;21.73;30.15;101677.59;5106247;28;20040;-67
2022/11/13 12:48:35;;;;;;;8.45;3.90;;;;;;;22.39;29.33;101670.56;5111098;27;20432;-68
2022/11/13 12:51:22;;;;;;;9.63;3.55;;;;;;;22.80;28.40;101664.03;5109707;28;20134;-66
2022/11/13 12:54:09;;;;;;;10.65;4.00;;;;;;;23.17;27.80;101661.63;5109452;28;20036;-66
2022/11/13 12:57:17;;;;;;;9.00;3.78;;;;;;;23.82;27.13;101653.34;5073995;28;20043;-67
2022/11/13 13:00:24;;;;;;;9.27;3.78;;;;;;;23.79;26.64;101652.91;5110059;28;20064;-66
2022/11/13 13:03:21;;;;;;;8.25;3.58;;;;;;;23.39;23.92;101648.59;5110732;28;20456;-66
2022/11/13 13:06:48;;;;;;;7.20;3.30;;;;;;;24.68;24.39;101642.75;5089137;28;20042;-66
2022/11/13 13:09:54;;;;;;;8.10;3.20;;;;;;;24.57;23.88;101638.91;5089929;28;20062;-66
2022/11/13 13:13:06;;;;;;;8.50;3.15;;;;;;;22.74;25.57;101633.28;5094079;28;20032;-66
2022/11/13 13:16:01;;;;;;;7.90;3.53;;;;;;;21.21;28.73;101620.59;5109237;28;20047;-66
2022/11/13 13:18:48;;;;;;;11.02;3.03;;;;;;;20.08;30.34;101612.75;5109910;28;20040;-66
2022/11/13 13:21:40;;;;;;;10.13;3.30;;;;;;;19.36;31.04;101611.84;5109187;28;20120;-66
2022/11/13 13:24:34;;;;;;;10.93;3.42;;;;;;;18.79;30.86;101599.16;5110062;28;20046;-66
2022/11/13 13:27:24;;;;;;;8.30;3.70;;;;;;;18.32;32.52;101598.53;5110636;28;20040;-66